sensor_id;sensor_type;location;lat;lon;timestamp;pressure;altitude;pressure_sealevel;temperature;humidity
46382;BME280;66809;52.974;-2.514;2023-05-08T00:01:48;1011.4615326524105;;;11.814550813710785;39.31052287896879
46382;BME280;66809;52.974;-2.514;2023-05-08T00:03:50;1011.452644654928;;;11.792688096678644;39.32039618412005
46382;BME280;66809;52.974;-2.514;2023-05-08T00:05:49;1011.4439973407747;;;11.766926774051827;39.33520550302259
46382;BME280;66809;52.974;-2.514;2023-05-08T00:07:48;1011.4356928855808;;;11.739798850068787;39.35060749691781
46382;BME280;66809;52.974;-2.514;2023-05-08T00:09:48;1011.4262833782728;;;11.716836293438611;39.364038750435775
46382;BME280;66809;52.974;-2.514;2023-05-08T00:11:49;1011.4165323476665;;;11.685714427880454;39.384457587726644
46382;BME280;66809;52.974;-2.514;2023-05-08T00:13:48;1011.4083722460086;;;11.655710064130323;39.406836240649085
46382;BME280;66809;52.974;-2.514;2023-05-08T00:15:49;1011.4041051381889;;;11.621960480023654;39.42882181627238
46382;BME280;66809;52.974;-2.514;2023-05-08T00:17:48;1011.3993309498419;;;11.594544017465516;39.442737392857175
46382;BME280;66809;52.974;-2.514;2023-05-08T00:19:48;1011.3955832819059;;;11.563760433529874;39.458030373981764
46382;BME280;66809;52.974;-2.514;2023-05-08T00:21:49;1011.3919016957817;;;11.546435043652009;39.47013709922159
46382;BME280;66809;52.974;-2.514;2023-05-08T00:23:48;1011.3885364383592;;;11.531760598861222;39.46174775185409
46382;BME280;66809;52.974;-2.514;2023-05-08T00:25:48;1011.3858373978885;;;11.518760315436895;39.43534357452475
46382;BME280;66809;52.974;-2.514;2023-05-08T00:27:49;1011.3835196979061;;;11.507114914904308;39.40174957766903
46382;BME280;66809;52.974;-2.514;2023-05-08T00:29:48;1011.3797440567076;;;11.4978557319893;39.361859986199484
46382;BME280;66809;52.974;-2.514;2023-05-08T00:31:48;1011.3742427888352;;;11.495456868857698;39.317451654588254
46382;BME280;66809;52.974;-2.514;2023-05-08T00:33:49;1011.3685573051738;;;11.487422276172236;39.280223283642265
46382;BME280;66809;52.974;-2.514;2023-05-08T00:35:48;1011.3629586502914;;;11.480704697002198;39.24123408759862
46382;BME280;66809;52.974;-2.514;2023-05-08T00:37:48;1011.3573374585602;;;11.464444383697685;39.21494118817316
46382;BME280;66809;52.974;-2.514;2023-05-08T00:39:49;1011.350494785572;;;11.455691361884307;39.19298346464301
46382;BME280;66809;52.974;-2.514;2023-05-08T00:41:48;1011.3419387025017;;;11.455265703589715;39.16590531614328
46382;BME280;66809;52.974;-2.514;2023-05-08T00:43:48;1011.3309073101381;;;11.439015924793546;39.13557220022931
46382;BME280;66809;52.974;-2.514;2023-05-08T00:45:48;1011.3186494546376;;;11.428393473163124;39.106221613477246
46382;BME280;66809;52.974;-2.514;2023-05-08T00:47:49;1011.304716870983;;;11.417300500098074;39.08512978291391
46382;BME280;66809;52.974;-2.514;2023-05-08T00:49:48;1011.289298001493;;;11.412345269910949;39.07092798743328
46382;BME280;66809;52.974;-2.514;2023-05-08T00:51:50;1011.2739073219435;;;11.389676253573338;39.06214057594189
46382;BME280;66809;52.974;-2.514;2023-05-08T00:53:48;1011.2600764643038;;;11.370836507232916;39.04942419704984
46382;BME280;66809;52.974;-2.514;2023-05-08T00:55:49;1011.246611660151;;;11.36243641066359;39.04142573947671
46382;BME280;66809;52.974;-2.514;2023-05-08T00:57:48;1011.2352061163253;;;11.349677724078044;39.037750536953574
46382;BME280;66809;52.974;-2.514;2023-05-08T00:59:49;1011.224535166499;;;11.332773429585028;39.03476199551315
46382;BME280;66809;52.974;-2.514;2023-05-08T01:01:49;1011.21477127704;;;11.322645445120362;39.03689894149504
46382;BME280;66809;52.974;-2.514;2023-05-08T01:03:48;1011.2046731879728;;;11.29429661263799;39.04375418958548
46382;BME280;66809;52.974;-2.514;2023-05-08T01:05:48;1011.1941611307059;;;11.267451780790967;39.056593709047554
46382;BME280;66809;52.974;-2.514;2023-05-08T01:07:49;1011.1834680020652;;;11.24864569814754;39.06794877762332
46382;BME280;66809;52.974;-2.514;2023-05-08T01:09:48;1011.1734533322466;;;11.233573106257426;39.0800815493179
46382;BME280;66809;52.974;-2.514;2023-05-08T01:11:53;1011.1615798828593;;;11.22183616498193;39.075214017568975
46382;BME280;66809;52.974;-2.514;2023-05-08T01:13:55;1011.1486204664187;;;11.206056960499074;39.06886747528211
46382;BME280;66809;52.974;-2.514;2023-05-08T01:15:53;1011.1343924717606;;;11.196745295593486;39.06467886290535
46382;BME280;66809;52.974;-2.514;2023-05-08T01:18:00;1011.1203384001802;;;11.183016212829251;39.060786702228214
46382;BME280;66809;52.974;-2.514;2023-05-08T01:19:57;1011.1053968832795;;;11.171396065893122;39.05747959480501
46382;BME280;66809;52.974;-2.514;2023-05-08T01:21:50;1011.0896540588972;;;11.15897771746808;39.05436935664199
46382;BME280;66809;52.974;-2.514;2023-05-08T01:24:03;1011.0741658272095;;;11.148573765363484;39.055886079699114
46382;BME280;66809;52.974;-2.514;2023-05-08T01:26:12;1011.0583177150417;;;11.138018566977978;39.059567556150796
46382;BME280;66809;52.974;-2.514;2023-05-08T01:28:07;1011.0416485682016;;;11.128555645626669;39.06295164617635
46382;BME280;66809;52.974;-2.514;2023-05-08T01:31:02;1011.0245473850247;;;11.112499156362624;39.069975247279054
46382;BME280;66809;52.974;-2.514;2023-05-08T01:32:03;1011.008619273311;;;11.090218791201613;39.07671169098369
46382;BME280;66809;52.974;-2.514;2023-05-08T01:33:54;1010.9932117952361;;;11.076170410962499;39.08422397971653
46382;BME280;66809;52.974;-2.514;2023-05-08T01:35:50;1010.9769487670216;;;11.061911979377005;39.10205561653886
46382;BME280;66809;52.974;-2.514;2023-05-08T01:37:51;1010.9604364482093;;;11.052047869271458;39.100318630854396
46382;BME280;66809;52.974;-2.514;2023-05-08T01:39:54;1010.94337429235;;;11.040749100557308;39.10299334706007
46382;BME280;66809;52.974;-2.514;2023-05-08T01:41:56;1010.9252976241709;;;11.03050606093541;39.103597737533754
46382;BME280;66809;52.974;-2.514;2023-05-08T01:43:54;1010.907593674698;;;11.018602337215095;39.11374088739471
46382;BME280;66809;52.974;-2.514;2023-05-08T01:45:49;1010.8895370278804;;;11.018365802092559;39.13705925237855
46382;BME280;66809;52.974;-2.514;2023-05-08T01:47:53;1010.8717060687782;;;11.01447644359879;39.15359391333848
46382;BME280;66809;52.974;-2.514;2023-05-08T01:49:55;1010.8541817730238;;;11.009006651995497;39.161863146927395
46382;BME280;66809;52.974;-2.514;2023-05-08T01:51:55;1010.8354273332155;;;11.009765783830927;39.16284635828869
46382;BME280;66809;52.974;-2.514;2023-05-08T01:53:52;1010.8160644548503;;;11.01212678387141;39.16372400754413
46382;BME280;66809;52.974;-2.514;2023-05-08T01:55:52;1010.7949614166315;;;11.015672484752049;39.1652862711038
46382;BME280;66809;52.974;-2.514;2023-05-08T01:57:50;1010.7730952802693;;;11.02415864174781;39.16585281802691
46382;BME280;66809;52.974;-2.514;2023-05-08T01:59:49;1010.7515164884301;;;11.02598318136027;39.16287243212181
46382;BME280;66809;52.974;-2.514;2023-05-08T02:01:51;1010.7299435856877;;;11.035409546933604;39.151526306353134
46382;BME280;66809;52.974;-2.514;2023-05-08T02:03:49;1010.7085391337022;;;11.05003136910742;39.14214084765704
46382;BME280;66809;52.974;-2.514;2023-05-08T02:05:49;1010.6886593140322;;;11.071238353418648;39.13688543209943
46382;BME280;66809;52.974;-2.514;2023-05-08T02:07:49;1010.6696115026692;;;11.095226448607328;39.13123042592069
46382;BME280;66809;52.974;-2.514;2023-05-08T02:09:49;1010.6506280176636;;;11.108704747929682;39.119875356203416
46382;BME280;66809;52.974;-2.514;2023-05-08T02:11:50;1010.6321934127936;;;11.119998489920295;39.12188167379141
46382;BME280;66809;52.974;-2.514;2023-05-08T02:13:49;1010.6153615037651;;;11.13524207079178;39.13136314425819
46382;BME280;66809;52.974;-2.514;2023-05-08T02:15:51;1010.5987092938061;;;11.152401344356775;39.14447679374192
46382;BME280;66809;52.974;-2.514;2023-05-08T02:17:49;1010.5829740038282;;;11.16863638209714;39.160144372044336
46382;BME280;66809;52.974;-2.514;2023-05-08T02:19:49;1010.5665132790696;;;11.185442769444816;39.16706098789814
46382;BME280;66809;52.974;-2.514;2023-05-08T02:21:50;1010.5490608259903;;;11.202887717540934;39.162870543734144
46382;BME280;66809;52.974;-2.514;2023-05-08T02:23:49;1010.532132460934;;;11.222985639149494;39.163206972471556
46382;BME280;66809;52.974;-2.514;2023-05-08T02:25:49;1010.5155343586453;;;11.237235668700281;39.17378081134701
46382;BME280;66809;52.974;-2.514;2023-05-08T02:27:49;1010.4989745842745;;;11.242692879164956;39.178749696052634
46382;BME280;66809;52.974;-2.514;2023-05-08T02:29:49;1010.4826411752804;;;11.257909153092076;39.18794638359172
46382;BME280;66809;52.974;-2.514;2023-05-08T02:31:49;1010.4674424303698;;;11.26905249527319;39.19389498837373
46382;BME280;66809;52.974;-2.514;2023-05-08T02:33:49;1010.4531297185869;;;11.275146153435374;39.208800724039484
46382;BME280;66809;52.974;-2.514;2023-05-08T02:35:49;1010.4401830736884;;;11.285783258545399;39.22478900098695
46382;BME280;66809;52.974;-2.514;2023-05-08T02:37:52;1010.4265674169804;;;11.296907690949249;39.24440918452378
46382;BME280;66809;52.974;-2.514;2023-05-08T02:39:50;1010.4134055572557;;;11.31317212946884;39.254202138652424
46382;BME280;66809;52.974;-2.514;2023-05-08T02:41:49;1010.401944240333;;;11.317955061788815;39.26734268843662
46382;BME280;66809;52.974;-2.514;2023-05-08T02:43:49;1010.3909212088339;;;11.329659248381137;39.267997424445305
46382;BME280;66809;52.974;-2.514;2023-05-08T02:45:58;1010.380507219743;;;11.337993341839423;39.260591656395654
46382;BME280;66809;52.974;-2.514;2023-05-08T02:47:54;1010.3694945137594;;;11.33773415233596;39.262728133466155
46382;BME280;66809;52.974;-2.514;2023-05-08T02:49:51;1010.3575490472175;;;11.344558802487306;39.25856924061318
46382;BME280;66809;52.974;-2.514;2023-05-08T02:51:53;1010.3470540696763;;;11.359033585688488;39.24566619333083
46382;BME280;66809;52.974;-2.514;2023-05-08T02:53:54;1010.3372549604198;;;11.371401548252443;39.240617672144545
46382;BME280;66809;52.974;-2.514;2023-05-08T02:55:52;1010.3291667003201;;;11.386785888720944;39.231528593194604
46382;BME280;66809;52.974;-2.514;2023-05-08T02:57:55;1010.3209023095973;;;11.390302223336427;39.21851382546052
46382;BME280;66809;52.974;-2.514;2023-05-08T02:59:55;1010.3114466112114;;;11.403894794860445;39.19911896467928
46382;BME280;66809;52.974;-2.514;2023-05-08T03:01:53;1010.3008942556373;;;11.41285989810685;39.19161512260921
46382;BME280;66809;52.974;-2.514;2023-05-08T03:03:54;1010.2900665785213;;;11.424225899685586;39.175371668226056
46382;BME280;66809;52.974;-2.514;2023-05-08T03:05:52;1010.2785878363521;;;11.42402636576116;39.144489527732595
46382;BME280;66809;52.974;-2.514;2023-05-08T03:07:51;1010.2644676071527;;;11.422387945600095;39.115889058297604
46382;BME280;66809;52.974;-2.514;2023-05-08T03:09:56;1010.2498039408207;;;11.424402345742031;39.092895104976236
46382;BME280;66809;52.974;-2.514;2023-05-08T03:11:49;1010.2356242750664;;;11.423873010032187;39.07333563025527
46382;BME280;66809;52.974;-2.514;2023-05-08T03:13:51;1010.221716454967;;;11.426948199293175;39.04295194252715
46382;BME280;66809;52.974;-2.514;2023-05-08T03:15:52;1010.20777043229;;;11.424345649513754;39.00637507696247
46382;BME280;66809;52.974;-2.514;2023-05-08T03:17:52;1010.1943547070714;;;11.433661525251626;38.974509305014244
46382;BME280;66809;52.974;-2.514;2023-05-08T03:19:53;1010.1822254031605;;;11.449464687274006;38.95473013565543
46382;BME280;66809;52.974;-2.514;2023-05-08T03:21:50;1010.1719337695064;;;11.449063504729578;38.938590365356504
46382;BME280;66809;52.974;-2.514;2023-05-08T03:23:50;1010.1595464345797;;;11.446990291501324;38.91665616009791
46382;BME280;66809;52.974;-2.514;2023-05-08T03:25:48;1010.14696780419;;;11.452955823671854;38.886948121434244
46382;BME280;66809;52.974;-2.514;2023-05-08T03:27:49;1010.1348370172216;;;11.463464806438006;38.871986524682725
46382;BME280;66809;52.974;-2.514;2023-05-08T03:29:48;1010.1242404782411;;;11.468130126307061;38.85082229046336
46382;BME280;66809;52.974;-2.514;2023-05-08T03:31:50;1010.1132526562676;;;11.481058930095248;38.841851684132536
46382;BME280;66809;52.974;-2.514;2023-05-08T03:33:52;1010.1011955355822;;;11.488864532048563;38.83003660486066
46382;BME280;66809;52.974;-2.514;2023-05-08T03:35:49;1010.0879305209138;;;11.491210848305418;38.811245638752176
46382;BME280;66809;52.974;-2.514;2023-05-08T03:37:48;1010.0758996704018;;;11.485770484907233;38.804748602628976
46382;BME280;66809;52.974;-2.514;2023-05-08T03:39:48;1010.0635891562986;;;11.48047924452103;38.819295884753636
46382;BME280;66809;52.974;-2.514;2023-05-08T03:41:48;1010.051389808545;;;11.48320782849218;38.83129135324498
46382;BME280;66809;52.974;-2.514;2023-05-08T03:43:49;1010.0384845509118;;;11.487819318988288;38.855676365139146
46382;BME280;66809;52.974;-2.514;2023-05-08T03:45:50;1010.0248621559198;;;11.480828732774658;38.88045489525238
46382;BME280;66809;52.974;-2.514;2023-05-08T03:47:50;1010.0121899039194;;;11.477247311891963;38.899236308069845
46382;BME280;66809;52.974;-2.514;2023-05-08T03:49:49;1010.0008220415544;;;11.477237626941195;38.94209383837258
46382;BME280;66809;52.974;-2.514;2023-05-08T03:51:49;1009.9888260408176;;;11.466600513694521;39.00234306589824
46382;BME280;66809;52.974;-2.514;2023-05-08T03:53:48;1009.9759838147336;;;11.448588422259729;39.05464280739218
46382;BME280;66809;52.974;-2.514;2023-05-08T03:55:49;1009.9618313991447;;;11.43991822208593;39.10911630595092
46382;BME280;66809;52.974;-2.514;2023-05-08T03:57:55;1009.9483742911715;;;11.437547517689158;39.16064456698904
46382;BME280;66809;52.974;-2.514;2023-05-08T03:59:53;1009.9345487639508;;;11.427095236508304;39.22484759117926
46382;BME280;66809;52.974;-2.514;2023-05-08T04:01:54;1009.9214659844494;;;11.410150205875254;39.29318283369571
46382;BME280;66809;52.974;-2.514;2023-05-08T04:03:53;1009.9088821513812;;;11.396673152987914;39.3628894964822
46382;BME280;66809;52.974;-2.514;2023-05-08T04:05:54;1009.8961678157824;;;11.394899009871558;39.43956551548813
46382;BME280;66809;52.974;-2.514;2023-05-08T04:07:52;1009.8844187583953;;;11.38530459708897;39.52447373651686
46382;BME280;66809;52.974;-2.514;2023-05-08T04:09:55;1009.8727549299232;;;11.369012851719763;39.61124339023286
46382;BME280;66809;52.974;-2.514;2023-05-08T04:11:55;1009.8615414761367;;;11.363692183262442;39.685245173100725
46382;BME280;66809;52.974;-2.514;2023-05-08T04:13:51;1009.8497986629021;;;11.362698612554773;39.75041717175893
46382;BME280;66809;52.974;-2.514;2023-05-08T04:15:51;1009.8374707270006;;;11.366568597779407;39.82247473639605
46382;BME280;66809;52.974;-2.514;2023-05-08T04:17:52;1009.8234216546517;;;11.349839917808383;39.90867828014838
46382;BME280;66809;52.974;-2.514;2023-05-08T04:19:52;1009.8090845511792;;;11.329018558309437;39.99429851147679
46382;BME280;66809;52.974;-2.514;2023-05-08T04:21:49;1009.7959724069149;;;11.327056620660809;40.093965009980856
46382;BME280;66809;52.974;-2.514;2023-05-08T04:23:50;1009.7839620978822;;;11.31990638474854;40.19264832640529
46382;BME280;66809;52.974;-2.514;2023-05-08T04:25:50;1009.7727828050614;;;11.301772481479524;40.297028912934096
46382;BME280;66809;52.974;-2.514;2023-05-08T04:27:49;1009.7612479368316;;;11.29739707673955;40.39256958715065
46382;BME280;66809;52.974;-2.514;2023-05-08T04:29:48;1009.7478458351059;;;11.30217791378895;40.47878292930947
46382;BME280;66809;52.974;-2.514;2023-05-08T04:31:48;1009.7356851568983;;;11.300787408027782;40.56115654211912
46382;BME280;66809;52.974;-2.514;2023-05-08T04:33:49;1009.7246672337255;;;11.313298243683933;40.64440548569516
46382;BME280;66809;52.974;-2.514;2023-05-08T04:35:48;1009.7144326790765;;;11.314111232724965;40.71919695457367
46382;BME280;66809;52.974;-2.514;2023-05-08T04:37:48;1009.7042478140863;;;11.327094715343685;40.78877387176218
46382;BME280;66809;52.974;-2.514;2023-05-08T04:39:49;1009.6943846025295;;;11.3438255650741;40.845273638572706
46382;BME280;66809;52.974;-2.514;2023-05-08T04:41:48;1009.6841178158626;;;11.353612072187957;40.90118041130396
46382;BME280;66809;52.974;-2.514;2023-05-08T04:43:48;1009.6744363092149;;;11.375532518452216;40.952071714164646
46382;BME280;66809;52.974;-2.514;2023-05-08T04:45:49;1009.6645434567514;;;11.38420364258101;40.994603543800054
46382;BME280;66809;52.974;-2.514;2023-05-08T04:47:48;1009.6551756782286;;;11.410689374347648;41.041554908588395
46382;BME280;66809;52.974;-2.514;2023-05-08T04:49:48;1009.6438829083478;;;11.415290086731035;41.07809987936427
46382;BME280;66809;52.974;-2.514;2023-05-08T04:51:48;1009.632789341778;;;11.432433925483043;41.10236330216699
46382;BME280;66809;52.974;-2.514;2023-05-08T04:53:49;1009.6215328796095;;;11.455728972076892;41.13105018769123
46382;BME280;66809;52.974;-2.514;2023-05-08T04:55:48;1009.6115452897923;;;11.47527372350043;41.14970790185709
46382;BME280;66809;52.974;-2.514;2023-05-08T04:57:48;1009.6011156875153;;;11.493364907079828;41.18301343457848
46382;BME280;66809;52.974;-2.514;2023-05-08T04:59:49;1009.5916656448841;;;11.507940652303935;41.20836110902872
46382;BME280;66809;52.974;-2.514;2023-05-08T05:01:48;1009.5829251352959;;;11.528009289752905;41.23715249641371
46382;BME280;66809;52.974;-2.514;2023-05-08T05:03:48;1009.574427264257;;;11.546374406535259;41.25965168880326
46382;BME280;66809;52.974;-2.514;2023-05-08T05:05:52;1009.5667200993761;;;11.558741696730175;41.27605723314101
46382;BME280;66809;52.974;-2.514;2023-05-08T05:07:48;1009.5609750329427;;;11.588009872501248;41.28126603924765
46382;BME280;66809;52.974;-2.514;2023-05-08T05:09:49;1009.5563136817929;;;11.614107077857112;41.27812073880124
46382;BME280;66809;52.974;-2.514;2023-05-08T05:11:48;1009.5508453342921;;;11.633348145630574;41.28283058352544
46382;BME280;66809;52.974;-2.514;2023-05-08T05:13:48;1009.5465788754759;;;11.64152903676292;41.31024685719193
46382;BME280;66809;52.974;-2.514;2023-05-08T05:15:49;1009.5420279481552;;;11.649586008737174;41.32852014411042
46382;BME280;66809;52.974;-2.514;2023-05-08T05:17:48;1009.5383102419726;;;11.662164130879804;41.34179636225569
46382;BME280;66809;52.974;-2.514;2023-05-08T05:19:48;1009.5358345726526;;;11.680064989440627;41.355170880273164
46382;BME280;66809;52.974;-2.514;2023-05-08T05:21:49;1009.5326674006228;;;11.69518473767106;41.36098476783654
46382;BME280;66809;52.974;-2.514;2023-05-08T05:23:48;1009.530036458395;;;11.708943345839629;41.3699411314786
46382;BME280;66809;52.974;-2.514;2023-05-08T05:25:48;1009.5266185815908;;;11.73570214706587;41.36936595791639
46382;BME280;66809;52.974;-2.514;2023-05-08T05:27:49;1009.5233242793511;;;11.745570577317519;41.363870940075756
46382;BME280;66809;52.974;-2.514;2023-05-08T05:29:48;1009.5216515000933;;;11.745089660962485;41.36849700008026
46382;BME280;66809;52.974;-2.514;2023-05-08T05:31:48;1009.5182234264827;;;11.751670713881031;41.37017227834368
46382;BME280;66809;52.974;-2.514;2023-05-08T05:33:49;1009.5148785044966;;;11.749414799114524;41.37086537208732
46382;BME280;66809;52.974;-2.514;2023-05-08T05:35:49;1009.5131319866833;;;11.756439031418672;41.382961346423706
46382;BME280;66809;52.974;-2.514;2023-05-08T05:37:49;1009.51107393905;;;11.763488472251346;41.4010559196021
46382;BME280;66809;52.974;-2.514;2023-05-08T05:39:48;1009.5101113033021;;;11.762282838686964;41.41443259377292
46382;BME280;66809;52.974;-2.514;2023-05-08T05:41:48;1009.5095987256664;;;11.766435668915484;41.431547107259235
46382;BME280;66809;52.974;-2.514;2023-05-08T05:43:49;1009.5101112525099;;;11.76383741963043;41.441976771216545
46382;BME280;66809;52.974;-2.514;2023-05-08T05:45:48;1009.5116105299096;;;11.780356153633232;41.45456934010398
46382;BME280;66809;52.974;-2.514;2023-05-08T05:47:48;1009.5149232975838;;;11.790510310713776;41.459198446164315
46382;BME280;66809;52.974;-2.514;2023-05-08T05:49:48;1009.5199062011122;;;11.81225815293492;41.4560581083595
46382;BME280;66809;52.974;-2.514;2023-05-08T05:51:48;1009.5235961753169;;;11.822328293767612;41.43854456942121
46382;BME280;66809;52.974;-2.514;2023-05-08T05:53:48;1009.528610602773;;;11.83133760512917;41.431858097324124
46382;BME280;66809;52.974;-2.514;2023-05-08T05:55:48;1009.5336297726785;;;11.827924341540099;41.44218534274647
46382;BME280;66809;52.974;-2.514;2023-05-08T05:57:48;1009.5393838684728;;;11.839048859680702;41.447892885302544
46382;BME280;66809;52.974;-2.514;2023-05-08T05:59:49;1009.5448853511514;;;11.842747975068873;41.461861674057076
46382;BME280;66809;52.974;-2.514;2023-05-08T06:01:48;1009.5494107946317;;;11.850486405233436;41.46373339058841
46382;BME280;66809;52.974;-2.514;2023-05-08T06:03:48;1009.5537691933301;;;11.85132036811388;41.46983256584143
46382;BME280;66809;52.974;-2.514;2023-05-08T06:05:49;1009.5575523114317;;;11.854645496151107;41.488811656150006
46382;BME280;66809;52.974;-2.514;2023-05-08T06:07:48;1009.5607983001726;;;11.842970722738833;41.50887260558669
46382;BME280;66809;52.974;-2.514;2023-05-08T06:09:48;1009.5640921508854;;;11.844130226970757;41.53473850061092
46382;BME280;66809;52.974;-2.514;2023-05-08T06:11:49;1009.567814632919;;;11.850690203646046;41.56335850515097
46382;BME280;66809;52.974;-2.514;2023-05-08T06:13:48;1009.5702330209065;;;11.85817109774032;41.58411295504466
46382;BME280;66809;52.974;-2.514;2023-05-08T06:15:48;1009.5738116931548;;;11.870444574379901;41.60172067150837
46382;BME280;66809;52.974;-2.514;2023-05-08T06:17:49;1009.5785041621058;;;11.882594157918257;41.602908097152564
46382;BME280;66809;52.974;-2.514;2023-05-08T06:19:48;1009.5822992283472;;;11.8854383880038;41.60350583839018
46382;BME280;66809;52.974;-2.514;2023-05-08T06:21:50;1009.5839456706543;;;11.887417189791336;41.60892338409974
46382;BME280;66809;52.974;-2.514;2023-05-08T06:23:48;1009.5848183006663;;;11.893737789624147;41.618963144125374
46382;BME280;66809;52.974;-2.514;2023-05-08T06:25:48;1009.5854913844936;;;11.896548419054046;41.63421699590402
46382;BME280;66809;52.974;-2.514;2023-05-08T06:27:49;1009.5865002807965;;;11.905715229174579;41.653795515577386
46382;BME280;66809;52.974;-2.514;2023-05-08T06:29:49;1009.5859341990764;;;11.915781078172403;41.66117731129844
46382;BME280;66809;52.974;-2.514;2023-05-08T06:31:48;1009.5862890704373;;;11.924956290565634;41.668558314846436
46382;BME280;66809;52.974;-2.514;2023-05-08T06:33:48;1009.586191790837;;;11.939162274164273;41.69059560330235
46382;BME280;66809;52.974;-2.514;2023-05-08T06:35:49;1009.5841587192897;;;11.952065915753431;41.69669910678725
46382;BME280;66809;52.974;-2.514;2023-05-08T06:37:48;1009.5825865006075;;;11.956193547264984;41.703002184309256
46382;BME280;66809;52.974;-2.514;2023-05-08T06:39:48;1009.5808363521444;;;11.96408322444153;41.70222041809629
46382;BME280;66809;52.974;-2.514;2023-05-08T06:41:49;1009.5776972233677;;;11.964855448212552;41.709308298953644
46382;BME280;66809;52.974;-2.514;2023-05-08T06:43:48;1009.5736542829138;;;11.963193961161027;41.72603299986686
46382;BME280;66809;52.974;-2.514;2023-05-08T06:45:48;1009.5687581788237;;;11.963773714286145;41.745510859919115
46382;BME280;66809;52.974;-2.514;2023-05-08T06:47:49;1009.5614331460545;;;11.951591872786768;41.763808019316215
46382;BME280;66809;52.974;-2.514;2023-05-08T06:49:48;1009.5544311474628;;;11.94792010188746;41.79577701472127
46382;BME280;66809;52.974;-2.514;2023-05-08T06:51:48;1009.5484064058032;;;11.945819545688904;41.83906961673013
46382;BME280;66809;52.974;-2.514;2023-05-08T06:53:49;1009.5413673857496;;;11.945424641399939;41.87310643181057
46382;BME280;66809;52.974;-2.514;2023-05-08T06:55:48;1009.534202390851;;;11.947449575068203;41.9083205942687
46382;BME280;66809;52.974;-2.514;2023-05-08T06:57:48;1009.5263331702237;;;11.93603526780082;41.94824704806838
46382;BME280;66809;52.974;-2.514;2023-05-08T06:59:48;1009.5185672915694;;;11.936270529798778;41.98630607566929
46382;BME280;66809;52.974;-2.514;2023-05-08T07:01:49;1009.5106270190321;;;11.94156177387078;42.027906513759085
46382;BME280;66809;52.974;-2.514;2023-05-08T07:03:48;1009.5033008101867;;;11.937225450463902;42.063507747039644
46382;BME280;66809;52.974;-2.514;2023-05-08T07:05:48;1009.4959603611404;;;11.937597293635326;42.098323548064954
46382;BME280;66809;52.974;-2.514;2023-05-08T07:07:49;1009.4875480438891;;;11.944083797346288;42.135600142936504
46382;BME280;66809;52.974;-2.514;2023-05-08T07:09:48;1009.4783437986576;;;11.949461211999393;42.16029107344694